sensor_id;sensor_type;location;lat;lon;timestamp;P1;durP1;ratioP1;P2;durP2;ratioP2
2486;SDS011;1254;49.144;8.212;2022-11-27T00:01:27;33.05;;;19.15;;
2486;SDS011;1254;49.144;8.212;2022-11-27T00:03:56;31.60;;;18.00;;
2486;SDS011;1254;49.144;8.212;2022-11-27T00:06:25;22.95;;;16.52;;
2486;SDS011;1254;49.144;8.212;2022-11-27T00:08:54;23.75;;;16.05;;
2486;SDS011;1254;49.144;8.212;2022-11-27T00:11:25;23.58;;;16.77;;
2486;SDS011;1254;49.144;8.212;2022-11-27T00:13:54;24.95;;;16.77;;
2486;SDS011;1254;49.144;8.212;2022-11-27T00:16:23;27.23;;;17.42;;
2486;SDS011;1254;49.144;8.212;2022-11-27T00:18:51;27.77;;;16.95;;
2486;SDS011;1254;49.144;8.212;2022-11-27T00:21:20;26.55;;;15.40;;
2486;SDS011;1254;49.144;8.212;2022-11-27T00:23:50;37.28;;;17.38;;
2486;SDS011;1254;49.144;8.212;2022-11-27T00:26:20;46.03;;;17.77;;
2486;SDS011;1254;49.144;8.212;2022-11-27T00:28:49;41.65;;;17.67;;
2486;SDS011;1254;49.144;8.212;2022-11-27T00:31:19;64.80;;;18.67;;
2486;SDS011;1254;49.144;8.212;2022-11-27T00:33:48;51.05;;;21.08;;
2486;SDS011;1254;49.144;8.212;2022-11-27T00:36:16;49.30;;;19.33;;
2486;SDS011;1254;49.144;8.212;2022-11-27T00:38:44;50.88;;;19.23;;
2486;SDS011;1254;49.144;8.212;2022-11-27T00:41:14;71.78;;;20.92;;
2486;SDS011;1254;49.144;8.212;2022-11-27T00:43:43;56.00;;;20.20;;
2486;SDS011;1254;49.144;8.212;2022-11-27T00:46:13;48.70;;;20.42;;
2486;SDS011;1254;49.144;8.212;2022-11-27T00:48:41;133.75;;;22.05;;
2486;SDS011;1254;49.144;8.212;2022-11-27T00:51:11;89.68;;;22.95;;
2486;SDS011;1254;49.144;8.212;2022-11-27T00:53:41;124.57;;;24.38;;
2486;SDS011;1254;49.144;8.212;2022-11-27T00:56:10;96.68;;;22.88;;
2486;SDS011;1254;49.144;8.212;2022-11-27T00:58:41;48.65;;;21.00;;
2486;SDS011;1254;49.144;8.212;2022-11-27T01:01:14;90.18;;;23.52;;
2486;SDS011;1254;49.144;8.212;2022-11-27T01:03:44;87.00;;;24.88;;
2486;SDS011;1254;49.144;8.212;2022-11-27T01:06:14;107.95;;;23.63;;
2486;SDS011;1254;49.144;8.212;2022-11-27T01:08:42;95.55;;;24.92;;
2486;SDS011;1254;49.144;8.212;2022-11-27T01:11:12;101.10;;;25.67;;
2486;SDS011;1254;49.144;8.212;2022-11-27T01:13:41;57.97;;;22.90;;
2486;SDS011;1254;49.144;8.212;2022-11-27T01:16:11;93.55;;;25.17;;
2486;SDS011;1254;49.144;8.212;2022-11-27T01:18:41;106.65;;;26.38;;
2486;SDS011;1254;49.144;8.212;2022-11-27T01:21:10;161.32;;;22.95;;
2486;SDS011;1254;49.144;8.212;2022-11-27T01:23:39;290.45;;;28.23;;
2486;SDS011;1254;49.144;8.212;2022-11-27T01:26:08;193.70;;;24.13;;
2486;SDS011;1254;49.144;8.212;2022-11-27T01:28:37;196.68;;;20.77;;
2486;SDS011;1254;49.144;8.212;2022-11-27T01:31:06;212.40;;;22.80;;
2486;SDS011;1254;49.144;8.212;2022-11-27T01:33:35;241.63;;;21.95;;
2486;SDS011;1254;49.144;8.212;2022-11-27T01:36:05;72.75;;;17.00;;
2486;SDS011;1254;49.144;8.212;2022-11-27T01:38:34;219.07;;;21.02;;
2486;SDS011;1254;49.144;8.212;2022-11-27T01:41:03;221.93;;;22.77;;
2486;SDS011;1254;49.144;8.212;2022-11-27T01:43:37;197.80;;;24.30;;
2486;SDS011;1254;49.144;8.212;2022-11-27T01:46:15;197.70;;;20.98;;
2486;SDS011;1254;49.144;8.212;2022-11-27T01:48:55;215.20;;;23.48;;
2486;SDS011;1254;49.144;8.212;2022-11-27T01:51:27;242.10;;;22.40;;
2486;SDS011;1254;49.144;8.212;2022-11-27T01:53:57;197.25;;;21.35;;
2486;SDS011;1254;49.144;8.212;2022-11-27T01:56:25;147.55;;;21.35;;
2486;SDS011;1254;49.144;8.212;2022-11-27T01:58:55;164.90;;;20.15;;
2486;SDS011;1254;49.144;8.212;2022-11-27T02:01:25;214.60;;;21.73;;
2486;SDS011;1254;49.144;8.212;2022-11-27T02:03:53;162.07;;;20.55;;
2486;SDS011;1254;49.144;8.212;2022-11-27T02:06:24;191.52;;;20.90;;
2486;SDS011;1254;49.144;8.212;2022-11-27T02:08:53;155.80;;;18.40;;
2486;SDS011;1254;49.144;8.212;2022-11-27T02:11:25;166.27;;;19.75;;
2486;SDS011;1254;49.144;8.212;2022-11-27T02:13:58;126.18;;;19.75;;
2486;SDS011;1254;49.144;8.212;2022-11-27T02:16:35;163.52;;;20.70;;
2486;SDS011;1254;49.144;8.212;2022-11-27T02:19:13;180.50;;;20.45;;
2486;SDS011;1254;49.144;8.212;2022-11-27T02:21:53;120.05;;;20.55;;
2486;SDS011;1254;49.144;8.212;2022-11-27T02:24:34;131.60;;;17.08;;
2486;SDS011;1254;49.144;8.212;2022-11-27T02:27:16;130.95;;;19.85;;
2486;SDS011;1254;49.144;8.212;2022-11-27T02:29:55;83.65;;;16.55;;
2486;SDS011;1254;49.144;8.212;2022-11-27T02:32:28;135.10;;;19.67;;
2486;SDS011;1254;49.144;8.212;2022-11-27T02:35:02;119.00;;;16.75;;
2486;SDS011;1254;49.144;8.212;2022-11-27T02:37:35;83.22;;;18.90;;
2486;SDS011;1254;49.144;8.212;2022-11-27T02:40:11;114.93;;;17.52;;
2486;SDS011;1254;49.144;8.212;2022-11-27T02:42:44;97.45;;;19.05;;
2486;SDS011;1254;49.144;8.212;2022-11-27T02:45:19;73.30;;;16.23;;
2486;SDS011;1254;49.144;8.212;2022-11-27T02:47:50;98.80;;;16.85;;
2486;SDS011;1254;49.144;8.212;2022-11-27T02:50:26;79.63;;;16.10;;
2486;SDS011;1254;49.144;8.212;2022-11-27T02:53:32;88.43;;;15.10;;
2486;SDS011;1254;49.144;8.212;2022-11-27T02:56:04;91.72;;;16.23;;
2486;SDS011;1254;49.144;8.212;2022-11-27T02:58:36;67.85;;;15.60;;
2486;SDS011;1254;49.144;8.212;2022-11-27T03:01:16;70.95;;;16.70;;
2486;SDS011;1254;49.144;8.212;2022-11-27T03:03:46;118.82;;;16.42;;
2486;SDS011;1254;49.144;8.212;2022-11-27T03:06:19;91.60;;;15.63;;
2486;SDS011;1254;49.144;8.212;2022-11-27T03:08:53;93.22;;;17.25;;
2486;SDS011;1254;49.144;8.212;2022-11-27T03:11:24;104.97;;;16.67;;
2486;SDS011;1254;49.144;8.212;2022-11-27T03:13:57;163.18;;;19.85;;
2486;SDS011;1254;49.144;8.212;2022-11-27T03:16:32;156.00;;;18.15;;
2486;SDS011;1254;49.144;8.212;2022-11-27T03:19:06;148.88;;;17.10;;
2486;SDS011;1254;49.144;8.212;2022-11-27T03:21:41;129.40;;;16.63;;
2486;SDS011;1254;49.144;8.212;2022-11-27T03:24:12;84.95;;;14.98;;
2486;SDS011;1254;49.144;8.212;2022-11-27T03:26:40;126.90;;;16.70;;
2486;SDS011;1254;49.144;8.212;2022-11-27T03:29:09;137.40;;;17.30;;
2486;SDS011;1254;49.144;8.212;2022-11-27T03:31:41;84.63;;;16.17;;
2486;SDS011;1254;49.144;8.212;2022-11-27T03:34:09;61.63;;;14.57;;
2486;SDS011;1254;49.144;8.212;2022-11-27T03:36:38;147.43;;;19.25;;
2486;SDS011;1254;49.144;8.212;2022-11-27T03:39:06;116.20;;;16.73;;
2486;SDS011;1254;49.144;8.212;2022-11-27T03:41:37;86.57;;;16.60;;
2486;SDS011;1254;49.144;8.212;2022-11-27T03:44:15;95.55;;;16.80;;
2486;SDS011;1254;49.144;8.212;2022-11-27T03:46:55;91.75;;;17.52;;
2486;SDS011;1254;49.144;8.212;2022-11-27T03:49:32;66.88;;;14.90;;
2486;SDS011;1254;49.144;8.212;2022-11-27T03:52:11;66.45;;;17.27;;
2486;SDS011;1254;49.144;8.212;2022-11-27T03:54:47;52.97;;;17.83;;
2486;SDS011;1254;49.144;8.212;2022-11-27T03:57:26;73.22;;;16.42;;
2486;SDS011;1254;49.144;8.212;2022-11-27T04:00:00;59.20;;;14.48;;
2486;SDS011;1254;49.144;8.212;2022-11-27T04:02:39;81.78;;;14.68;;
2486;SDS011;1254;49.144;8.212;2022-11-27T04:05:08;72.85;;;16.98;;
2486;SDS011;1254;49.144;8.212;2022-11-27T04:07:36;57.55;;;16.25;;
2486;SDS011;1254;49.144;8.212;2022-11-27T04:10:05;64.15;;;14.45;;
2486;SDS011;1254;49.144;8.212;2022-11-27T04:15:20;68.85;;;16.35;;
2486;SDS011;1254;49.144;8.212;2022-11-27T04:18:15;67.25;;;14.02;;
2486;SDS011;1254;49.144;8.212;2022-11-27T04:20:46;60.22;;;15.25;;
2486;SDS011;1254;49.144;8.212;2022-11-27T04:23:36;53.33;;;14.73;;
2486;SDS011;1254;49.144;8.212;2022-11-27T04:26:04;50.38;;;15.93;;
2486;SDS011;1254;49.144;8.212;2022-11-27T04:28:32;63.47;;;15.27;;
2486;SDS011;1254;49.144;8.212;2022-11-27T04:31:00;34.97;;;13.80;;
2486;SDS011;1254;49.144;8.212;2022-11-27T04:33:30;50.80;;;14.82;;
2486;SDS011;1254;49.144;8.212;2022-11-27T04:35:58;29.42;;;13.68;;
2486;SDS011;1254;49.144;8.212;2022-11-27T04:38:25;47.92;;;14.55;;
2486;SDS011;1254;49.144;8.212;2022-11-27T04:40:53;40.35;;;18.10;;
2486;SDS011;1254;49.144;8.212;2022-11-27T04:43:23;40.75;;;14.63;;
2486;SDS011;1254;49.144;8.212;2022-11-27T04:45:50;37.53;;;12.63;;
2486;SDS011;1254;49.144;8.212;2022-11-27T04:48:18;45.83;;;14.45;;
2486;SDS011;1254;49.144;8.212;2022-11-27T04:50:48;45.50;;;15.27;;
2486;SDS011;1254;49.144;8.212;2022-11-27T04:53:15;46.63;;;14.63;;
2486;SDS011;1254;49.144;8.212;2022-11-27T04:55:43;52.33;;;14.15;;
2486;SDS011;1254;49.144;8.212;2022-11-27T04:58:11;45.03;;;15.15;;
2486;SDS011;1254;49.144;8.212;2022-11-27T05:00:39;36.28;;;12.07;;
2486;SDS011;1254;49.144;8.212;2022-11-27T05:03:07;47.95;;;12.98;;
2486;SDS011;1254;49.144;8.212;2022-11-27T05:05:35;47.20;;;13.88;;
2486;SDS011;1254;49.144;8.212;2022-11-27T05:08:05;50.00;;;13.20;;
2486;SDS011;1254;49.144;8.212;2022-11-27T05:10:32;67.30;;;12.75;;
2486;SDS011;1254;49.144;8.212;2022-11-27T05:13:00;27.05;;;11.50;;
2486;SDS011;1254;49.144;8.212;2022-11-27T05:15:28;50.53;;;13.50;;
2486;SDS011;1254;49.144;8.212;2022-11-27T05:17:56;38.10;;;13.10;;
2486;SDS011;1254;49.144;8.212;2022-11-27T05:20:24;36.35;;;13.27;;
2486;SDS011;1254;49.144;8.212;2022-11-27T05:22:52;47.75;;;13.52;;
2486;SDS011;1254;49.144;8.212;2022-11-27T05:25:21;41.80;;;13.07;;
2486;SDS011;1254;49.144;8.212;2022-11-27T05:27:49;51.75;;;13.25;;
2486;SDS011;1254;49.144;8.212;2022-11-27T05:30:17;40.08;;;14.05;;
2486;SDS011;1254;49.144;8.212;2022-11-27T05:32:45;39.67;;;12.52;;
2486;SDS011;1254;49.144;8.212;2022-11-27T05:35:13;34.55;;;12.32;;
2486;SDS011;1254;49.144;8.212;2022-11-27T05:37:41;41.55;;;12.68;;
2486;SDS011;1254;49.144;8.212;2022-11-27T05:40:09;36.30;;;14.80;;
2486;SDS011;1254;49.144;8.212;2022-11-27T05:42:39;30.05;;;13.13;;
2486;SDS011;1254;49.144;8.212;2022-11-27T05:45:07;36.25;;;13.98;;
2486;SDS011;1254;49.144;8.212;2022-11-27T05:47:36;38.97;;;18.85;;
2486;SDS011;1254;49.144;8.212;2022-11-27T05:50:04;26.58;;;12.82;;
2486;SDS011;1254;49.144;8.212;2022-11-27T05:52:37;36.08;;;13.75;;
2486;SDS011;1254;49.144;8.212;2022-11-27T05:55:36;29.13;;;13.05;;
2486;SDS011;1254;49.144;8.212;2022-11-27T05:58:23;38.72;;;13.43;;
2486;SDS011;1254;49.144;8.212;2022-11-27T06:01:08;40.72;;;13.80;;
2486;SDS011;1254;49.144;8.212;2022-11-27T06:03:37;37.22;;;13.05;;
2486;SDS011;1254;49.144;8.212;2022-11-27T06:06:05;31.25;;;12.55;;
2486;SDS011;1254;49.144;8.212;2022-11-27T06:08:34;38.80;;;14.15;;
2486;SDS011;1254;49.144;8.212;2022-11-27T06:11:04;41.47;;;14.55;;
2486;SDS011;1254;49.144;8.212;2022-11-27T06:13:35;25.42;;;13.00;;
2486;SDS011;1254;49.144;8.212;2022-11-27T06:16:04;36.38;;;14.05;;
2486;SDS011;1254;49.144;8.212;2022-11-27T06:18:33;25.98;;;13.18;;
2486;SDS011;1254;49.144;8.212;2022-11-27T06:21:04;29.05;;;14.13;;
2486;SDS011;1254;49.144;8.212;2022-11-27T06:23:33;32.10;;;14.20;;
2486;SDS011;1254;49.144;8.212;2022-11-27T06:26:08;35.95;;;14.93;;
2486;SDS011;1254;49.144;8.212;2022-11-27T06:28:41;39.55;;;16.23;;
2486;SDS011;1254;49.144;8.212;2022-11-27T06:31:10;40.28;;;17.40;;
2486;SDS011;1254;49.144;8.212;2022-11-27T06:33:39;32.70;;;17.08;;
2486;SDS011;1254;49.144;8.212;2022-11-27T06:36:10;24.75;;;13.35;;
2486;SDS011;1254;49.144;8.212;2022-11-27T06:39:15;35.58;;;14.82;;
2486;SDS011;1254;49.144;8.212;2022-11-27T06:42:14;33.55;;;15.32;;
2486;SDS011;1254;49.144;8.212;2022-11-27T06:44:48;23.98;;;12.20;;
2486;SDS011;1254;49.144;8.212;2022-11-27T06:47:15;29.77;;;12.32;;
2486;SDS011;1254;49.144;8.212;2022-11-27T06:49:43;34.80;;;15.52;;
2486;SDS011;1254;49.144;8.212;2022-11-27T06:52:11;27.45;;;13.82;;
2486;SDS011;1254;49.144;8.212;2022-11-27T06:54:39;26.63;;;12.25;;
2486;SDS011;1254;49.144;8.212;2022-11-27T06:57:06;24.25;;;12.32;;
2486;SDS011;1254;49.144;8.212;2022-11-27T06:59:34;25.67;;;13.25;;
2486;SDS011;1254;49.144;8.212;2022-11-27T07:02:03;30.15;;;12.85;;
2486;SDS011;1254;49.144;8.212;2022-11-27T07:04:32;33.45;;;14.07;;
2486;SDS011;1254;49.144;8.212;2022-11-27T07:07:00;23.50;;;11.95;;
2486;SDS011;1254;49.144;8.212;2022-11-27T07:09:28;22.38;;;11.88;;
2486;SDS011;1254;49.144;8.212;2022-11-27T07:11:56;21.48;;;12.38;;
2486;SDS011;1254;49.144;8.212;2022-11-27T07:14:23;28.70;;;14.90;;
2486;SDS011;1254;49.144;8.212;2022-11-27T07:16:51;31.85;;;16.27;;
2486;SDS011;1254;49.144;8.212;2022-11-27T07:19:21;20.75;;;12.82;;
2486;SDS011;1254;49.144;8.212;2022-11-27T07:21:48;25.00;;;14.23;;
2486;SDS011;1254;49.144;8.212;2022-11-27T07:24:16;23.52;;;13.50;;
2486;SDS011;1254;49.144;8.212;2022-11-27T07:26:45;30.77;;;14.15;;
2486;SDS011;1254;49.144;8.212;2022-11-27T07:29:13;28.00;;;14.18;;
2486;SDS011;1254;49.144;8.212;2022-11-27T07:31:49;27.10;;;14.02;;
2486;SDS011;1254;49.144;8.212;2022-11-27T07:35:11;19.38;;;11.85;;
2486;SDS011;1254;49.144;8.212;2022-11-27T07:38:17;19.63;;;11.75;;
2486;SDS011;1254;49.144;8.212;2022-11-27T07:40:45;27.05;;;13.18;;
2486;SDS011;1254;49.144;8.212;2022-11-27T07:43:13;18.52;;;12.68;;
2486;SDS011;1254;49.144;8.212;2022-11-27T07:45:41;21.13;;;12.80;;
2486;SDS011;1254;49.144;8.212;2022-11-27T07:48:09;18.05;;;11.27;;
2486;SDS011;1254;49.144;8.212;2022-11-27T07:50:39;18.17;;;11.88;;
2486;SDS011;1254;49.144;8.212;2022-11-27T07:53:07;21.90;;;12.23;;
2486;SDS011;1254;49.144;8.212;2022-11-27T07:55:36;25.15;;;12.93;;
2486;SDS011;1254;49.144;8.212;2022-11-27T07:58:04;26.30;;;13.80;;
2486;SDS011;1254;49.144;8.212;2022-11-27T08:00:32;25.13;;;14.77;;
2486;SDS011;1254;49.144;8.212;2022-11-27T08:03:01;22.63;;;13.68;;
2486;SDS011;1254;49.144;8.212;2022-11-27T08:05:32;25.98;;;15.25;;
2486;SDS011;1254;49.144;8.212;2022-11-27T08:08:02;24.00;;;13.70;;
2486;SDS011;1254;49.144;8.212;2022-11-27T08:10:33;22.42;;;11.95;;
2486;SDS011;1254;49.144;8.212;2022-11-27T08:13:01;25.00;;;12.63;;
2486;SDS011;1254;49.144;8.212;2022-11-27T08:15:30;19.48;;;11.23;;
2486;SDS011;1254;49.144;8.212;2022-11-27T08:17:58;22.50;;;11.75;;
2486;SDS011;1254;49.144;8.212;2022-11-27T08:20:26;24.80;;;13.75;;
2486;SDS011;1254;49.144;8.212;2022-11-27T08:22:54;27.85;;;13.38;;
2486;SDS011;1254;49.144;8.212;2022-11-27T08:25:23;25.02;;;12.68;;
2486;SDS011;1254;49.144;8.212;2022-11-27T08:27:52;20.58;;;12.35;;
2486;SDS011;1254;49.144;8.212;2022-11-27T08:30:20;18.48;;;11.98;;
2486;SDS011;1254;49.144;8.212;2022-11-27T08:32:48;38.03;;;20.40;;
2486;SDS011;1254;49.144;8.212;2022-11-27T08:35:17;31.58;;;16.17;;
2486;SDS011;1254;49.144;8.212;2022-11-27T08:37:45;28.52;;;15.00;;
2486;SDS011;1254;49.144;8.212;2022-11-27T08:40:13;25.75;;;14.00;;
2486;SDS011;1254;49.144;8.212;2022-11-27T08:42:44;26.85;;;13.77;;
2486;SDS011;1254;49.144;8.212;2022-11-27T08:45:13;26.75;;;15.50;;
2486;SDS011;1254;49.144;8.212;2022-11-27T08:47:41;56.38;;;28.50;;
2486;SDS011;1254;49.144;8.212;2022-11-27T08:50:09;40.53;;;20.60;;
2486;SDS011;1254;49.144;8.212;2022-11-27T08:52:37;23.30;;;14.80;;
2486;SDS011;1254;49.144;8.212;2022-11-27T08:55:05;22.40;;;13.35;;
2486;SDS011;1254;49.144;8.212;2022-11-27T08:57:34;18.85;;;12.25;;
2486;SDS011;1254;49.144;8.212;2022-11-27T09:00:04;20.80;;;13.70;;
2486;SDS011;1254;49.144;8.212;2022-11-27T09:02:34;16.90;;;12.05;;
2486;SDS011;1254;49.144;8.212;2022-11-27T09:05:03;21.90;;;12.32;;
2486;SDS011;1254;49.144;8.212;2022-11-27T09:07:32;20.98;;;11.48;;
2486;SDS011;1254;49.144;8.212;2022-11-27T09:10:00;25.20;;;15.02;;
2486;SDS011;1254;49.144;8.212;2022-11-27T09:12:28;32.55;;;19.92;;
2486;SDS011;1254;49.144;8.212;2022-11-27T09:14:56;40.65;;;24.13;;
2486;SDS011;1254;49.144;8.212;2022-11-27T09:17:25;27.40;;;17.50;;
2486;SDS011;1254;49.144;8.212;2022-11-27T09:19:53;27.85;;;17.30;;
2486;SDS011;1254;49.144;8.212;2022-11-27T09:22:21;23.17;;;16.20;;
2486;SDS011;1254;49.144;8.212;2022-11-27T09:24:49;29.48;;;17.10;;
2486;SDS011;1254;49.144;8.212;2022-11-27T09:27:17;24.48;;;16.88;;
2486;SDS011;1254;49.144;8.212;2022-11-27T09:29:45;25.17;;;16.40;;
2486;SDS011;1254;49.144;8.212;2022-11-27T09:32:13;27.92;;;16.48;;
2486;SDS011;1254;49.144;8.212;2022-11-27T09:34:42;26.35;;;17.13;;
2486;SDS011;1254;49.144;8.212;2022-11-27T09:37:10;31.23;;;17.73;;
2486;SDS011;1254;49.144;8.212;2022-11-27T09:39:38;28.58;;;17.42;;
2486;SDS011;1254;49.144;8.212;2022-11-27T09:42:06;25.35;;;16.20;;
2486;SDS011;1254;49.144;8.212;2022-11-27T09:45:25;27.05;;;15.73;;
2486;SDS011;1254;49.144;8.212;2022-11-27T09:48:17;28.08;;;17.40;;
2486;SDS011;1254;49.144;8.212;2022-11-27T09:51:07;24.33;;;14.68;;
2486;SDS011;1254;49.144;8.212;2022-11-27T09:53:41;24.52;;;16.38;;
2486;SDS011;1254;49.144;8.212;2022-11-27T09:56:15;23.35;;;14.45;;
2486;SDS011;1254;49.144;8.212;2022-11-27T09:58:44;24.55;;;15.52;;
2486;SDS011;1254;49.144;8.212;2022-11-27T10:01:16;25.15;;;16.30;;
2486;SDS011;1254;49.144;8.212;2022-11-27T10:03:48;25.67;;;14.85;;
2486;SDS011;1254;49.144;8.212;2022-11-27T10:06:21;28.05;;;16.73;;
2486;SDS011;1254;49.144;8.212;2022-11-27T10:08:59;31.77;;;18.77;;
2486;SDS011;1254;49.144;8.212;2022-11-27T10:11:35;29.88;;;15.88;;
2486;SDS011;1254;49.144;8.212;2022-11-27T10:14:18;24.77;;;15.82;;
2486;SDS011;1254;49.144;8.212;2022-11-27T10:16:58;22.92;;;15.38;;
2486;SDS011;1254;49.144;8.212;2022-11-27T10:19:33;20.90;;;14.85;;
2486;SDS011;1254;49.144;8.212;2022-11-27T10:22:10;21.92;;;14.75;;
2486;SDS011;1254;49.144;8.212;2022-11-27T10:24:42;17.38;;;13.13;;
2486;SDS011;1254;49.144;8.212;2022-11-27T10:27:19;16.80;;;11.82;;
2486;SDS011;1254;49.144;8.212;2022-11-27T10:29:51;14.70;;;11.55;;
2486;SDS011;1254;49.144;8.212;2022-11-27T10:32:22;16.48;;;12.55;;
2486;SDS011;1254;49.144;8.212;2022-11-27T10:34:54;18.35;;;13.80;;
2486;SDS011;1254;49.144;8.212;2022-11-27T10:37:27;18.63;;;13.00;;
2486;SDS011;1254;49.144;8.212;2022-11-27T10:40:00;21.35;;;14.02;;
2486;SDS011;1254;49.144;8.212;2022-11-27T10:42:33;27.75;;;15.60;;
2486;SDS011;1254;49.144;8.212;2022-11-27T10:45:04;22.42;;;15.77;;
2486;SDS011;1254;49.144;8.212;2022-11-27T10:47:34;23.40;;;16.10;;
2486;SDS011;1254;49.144;8.212;2022-11-27T10:50:08;30.15;;;15.70;;
2486;SDS011;1254;49.144;8.212;2022-11-27T10:52:44;21.20;;;14.50;;
2486;SDS011;1254;49.144;8.212;2022-11-27T10:55:24;18.00;;;12.50;;
2486;SDS011;1254;49.144;8.212;2022-11-27T10:58:05;25.08;;;15.57;;
2486;SDS011;1254;49.144;8.212;2022-11-27T11:00:40;19.10;;;13.75;;
2486;SDS011;1254;49.144;8.212;2022-11-27T11:03:13;18.08;;;12.63;;
2486;SDS011;1254;49.144;8.212;2022-11-27T11:05:53;16.77;;;11.57;;
2486;SDS011;1254;49.144;8.212;2022-11-27T11:08:24;14.55;;;11.40;;
2486;SDS011;1254;49.144;8.212;2022-11-27T11:10:57;16.92;;;11.65;;
2486;SDS011;1254;49.144;8.212;2022-11-27T11:13:27;19.08;;;13.40;;
2486;SDS011;1254;49.144;8.212;2022-11-27T11:15:57;18.20;;;12.18;;
2486;SDS011;1254;49.144;8.212;2022-11-27T11:18:30;14.50;;;12.48;;
2486;SDS011;1254;49.144;8.212;2022-11-27T11:21:00;27.05;;;13.52;;
2486;SDS011;1254;49.144;8.212;2022-11-27T11:23:33;15.20;;;11.02;;
2486;SDS011;1254;49.144;8.212;2022-11-27T11:26:03;15.13;;;11.57;;
2486;SDS011;1254;49.144;8.212;2022-11-27T11:28:43;14.10;;;12.60;;
2486;SDS011;1254;49.144;8.212;2022-11-27T11:31:15;14.77;;;10.73;;
2486;SDS011;1254;49.144;8.212;2022-11-27T11:33:47;13.43;;;10.90;;
2486;SDS011;1254;49.144;8.212;2022-11-27T11:36:18;14.90;;;11.02;;
2486;SDS011;1254;49.144;8.212;2022-11-27T11:38:48;18.70;;;13.00;;
2486;SDS011;1254;49.144;8.212;2022-11-27T11:41:16;15.88;;;11.85;;
2486;SDS011;1254;49.144;8.212;2022-11-27T11:43:52;12.68;;;10.60;;
2486;SDS011;1254;49.144;8.212;2022-11-27T11:46:23;15.57;;;10.52;;
2486;SDS011;1254;49.144;8.212;2022-11-27T11:48:55;14.43;;;11.20;;
2486;SDS011;1254;49.144;8.212;2022-11-27T11:51:30;15.70;;;10.43;;
2486;SDS011;1254;49.144;8.212;2022-11-27T11:54:11;15.02;;;11.35;;
2486;SDS011;1254;49.144;8.212;2022-11-27T11:56:48;16.63;;;11.80;;
2486;SDS011;1254;49.144;8.212;2022-11-27T11:59:20;15.02;;;12.48;;
2486;SDS011;1254;49.144;8.212;2022-11-27T12:01:56;17.67;;;11.73;;
2486;SDS011;1254;49.144;8.212;2022-11-27T12:07:34;19.42;;;12.15;;
2486;SDS011;1254;49.144;8.212;2022-11-27T12:10:16;18.65;;;12.10;;
2486;SDS011;1254;49.144;8.212;2022-11-27T12:12:53;20.27;;;13.10;;
2486;SDS011;1254;49.144;8.212;2022-11-27T12:15:31;26.92;;;14.80;;
2486;SDS011;1254;49.144;8.212;2022-11-27T12:18:03;22.17;;;14.43;;
2486;SDS011;1254;49.144;8.212;2022-11-27T12:20:40;19.55;;;12.38;;
2486;SDS011;1254;49.144;8.212;2022-11-27T12:23:21;15.60;;;11.80;;
2486;SDS011;1254;49.144;8.212;2022-11-27T12:26:08;14.60;;;10.32;;
2486;SDS011;1254;49.144;8.212;2022-11-27T12:28:48;14.65;;;10.95;;
2486;SDS011;1254;49.144;8.212;2022-11-27T12:31:38;14.50;;;10.60;;
2486;SDS011;1254;49.144;8.212;2022-11-27T12:34:18;22.73;;;12.10;;
2486;SDS011;1254;49.144;8.212;2022-11-27T12:36:57;17.77;;;12.93;;
2486;SDS011;1254;49.144;8.212;2022-11-27T12:39:46;24.73;;;13.57;;
2486;SDS011;1254;49.144;8.212;2022-11-27T12:42:28;24.40;;;12.70;;
2486;SDS011;1254;49.144;8.212;2022-11-27T12:45:02;15.43;;;11.75;;
2486;SDS011;1254;49.144;8.212;2022-11-27T12:47:38;16.45;;;11.43;;
2486;SDS011;1254;49.144;8.212;2022-11-27T12:50:12;14.30;;;10.80;;
2486;SDS011;1254;49.144;8.212;2022-11-27T12:52:44;16.85;;;12.35;;
2486;SDS011;1254;49.144;8.212;2022-11-27T12:55:22;16.02;;;11.45;;
2486;SDS011;1254;49.144;8.212;2022-11-27T12:58:04;17.95;;;11.70;;
2486;SDS011;1254;49.144;8.212;2022-11-27T13:00:36;22.40;;;15.18;;
2486;SDS011;1254;49.144;8.212;2022-11-27T13:03:09;16.92;;;12.23;;
2486;SDS011;1254;49.144;8.212;2022-11-27T13:05:43;19.45;;;14.73;;
2486;SDS011;1254;49.144;8.212;2022-11-27T13:08:19;13.05;;;10.07;;
2486;SDS011;1254;49.144;8.212;2022-11-27T13:10:51;15.60;;;9.50;;
2486;SDS011;1254;49.144;8.212;2022-11-27T13:13:25;16.10;;;9.73;;
2486;SDS011;1254;49.144;8.212;2022-11-27T13:15:57;14.70;;;10.55;;
2486;SDS011;1254;49.144;8.212;2022-11-27T13:18:31;11.15;;;9.70;;
2486;SDS011;1254;49.144;8.212;2022-11-27T13:21:03;14.70;;;10.15;;
2486;SDS011;1254;49.144;8.212;2022-11-27T13:23:34;15.65;;;10.70;;
2486;SDS011;1254;49.144;8.212;2022-11-27T13:26:03;15.30;;;10.57;;
2486;SDS011;1254;49.144;8.212;2022-11-27T13:28:36;17.95;;;12.18;;
2486;SDS011;1254;49.144;8.212;2022-11-27T13:31:11;13.40;;;9.73;;
2486;SDS011;1254;49.144;8.212;2022-11-27T13:33:44;16.27;;;10.65;;
2486;SDS011;1254;49.144;8.212;2022-11-27T13:36:17;19.60;;;12.50;;
2486;SDS011;1254;49.144;8.212;2022-11-27T13:38:51;15.63;;;10.13;;
2486;SDS011;1254;49.144;8.212;2022-11-27T13:41:29;19.20;;;11.40;;
2486;SDS011;1254;49.144;8.212;2022-11-27T13:44:00;15.18;;;11.60;;
2486;SDS011;1254;49.144;8.212;2022-11-27T13:46:29;13.77;;;9.85;;
2486;SDS011;1254;49.144;8.212;2022-11-27T13:49:16;16.92;;;11.95;;
2486;SDS011;1254;49.144;8.212;2022-11-27T13:51:51;19.00;;;12.20;;
2486;SDS011;1254;49.144;8.212;2022-11-27T13:54:31;14.45;;;10.63;;
2486;SDS011;1254;49.144;8.212;2022-11-27T13:57:08;20.15;;;12.25;;
2486;SDS011;1254;49.144;8.212;2022-11-27T13:59:38;14.90;;;11.48;;
2486;SDS011;1254;49.144;8.212;2022-11-27T14:02:06;13.38;;;10.75;;
2486;SDS011;1254;49.144;8.212;2022-11-27T14:04:35;12.65;;;9.85;;
2486;SDS011;1254;49.144;8.212;2022-11-27T14:07:15;16.33;;;10.88;;
2486;SDS011;1254;49.144;8.212;2022-11-27T14:09:44;14.35;;;10.02;;
2486;SDS011;1254;49.144;8.212;2022-11-27T14:12:15;13.07;;;9.48;;
2486;SDS011;1254;49.144;8.212;2022-11-27T14:15:01;21.90;;;11.55;;
2486;SDS011;1254;49.144;8.212;2022-11-27T14:17:33;13.30;;;9.95;;
2486;SDS011;1254;49.144;8.212;2022-11-27T14:20:18;30.42;;;16.25;;
2486;SDS011;1254;49.144;8.212;2022-11-27T14:22:58;14.88;;;11.02;;
2486;SDS011;1254;49.144;8.212;2022-11-27T14:25:27;10.32;;;9.25;;
2486;SDS011;1254;49.144;8.212;2022-11-27T14:27:58;17.38;;;10.65;;
2486;SDS011;1254;49.144;8.212;2022-11-27T14:30:32;14.18;;;10.48;;
2486;SDS011;1254;49.144;8.212;2022-11-27T14:33:02;16.35;;;10.75;;
2486;SDS011;1254;49.144;8.212;2022-11-27T14:35:30;12.15;;;9.95;;
2486;SDS011;1254;49.144;8.212;2022-11-27T14:38:08;12.70;;;10.70;;
2486;SDS011;1254;49.144;8.212;2022-11-27T14:40:36;12.40;;;9.85;;
2486;SDS011;1254;49.144;8.212;2022-11-27T14:43:08;15.20;;;10.10;;
2486;SDS011;1254;49.144;8.212;2022-11-27T14:45:40;17.50;;;12.10;;
2486;SDS011;1254;49.144;8.212;2022-11-27T14:48:12;20.67;;;14.15;;
2486;SDS011;1254;49.144;8.212;2022-11-27T14:50:45;20.10;;;13.88;;
2486;SDS011;1254;49.144;8.212;2022-11-27T14:53:15;26.13;;;14.80;;
2486;SDS011;1254;49.144;8.212;2022-11-27T14:55:44;19.50;;;13.15;;
2486;SDS011;1254;49.144;8.212;2022-11-27T14:58:16;19.38;;;11.95;;
2486;SDS011;1254;49.144;8.212;2022-11-27T15:00:51;22.33;;;13.43;;
2486;SDS011;1254;49.144;8.212;2022-11-27T15:03:23;18.40;;;12.82;;
2486;SDS011;1254;49.144;8.212;2022-11-27T15:05:52;14.52;;;10.40;;
2486;SDS011;1254;49.144;8.212;2022-11-27T15:08:23;22.88;;;14.07;;
2486;SDS011;1254;49.144;8.212;2022-11-27T15:10:53;17.55;;;13.18;;
2486;SDS011;1254;49.144;8.212;2022-11-27T15:13:24;24.63;;;14.68;;
2486;SDS011;1254;49.144;8.212;2022-11-27T15:15:59;19.13;;;12.13;;
2486;SDS011;1254;49.144;8.212;2022-11-27T15:18:30;20.45;;;13.35;;
2486;SDS011;1254;49.144;8.212;2022-11-27T15:21:01;17.77;;;13.50;;
2486;SDS011;1254;49.144;8.212;2022-11-27T15:23:36;16.55;;;12.52;;